Aviation Digital Data Service (ADDS)

Output produced by METARs form (0349 UTC 19 August 2019)
found at http://www.aviationweather.gov/metar/data/
 
Forecast for: UHSS (JUZNO-SAHALINSK , RU)
Text: TAF UHSS 190200Z 1903/2009 20003MPS 9999 BKN030CB
Forecast period: 0300 UTC 19 August 2019 to 0900 UTC 20 August 2019
Forecast type: FROM: standard forecast or significant change
Winds: from the SSW (200 degrees) at 7 MPH (6 knots; 3.1 m/s)
Visibility: 6 or more miles 10+ km)
Ceiling: 3000 feet AGL
Clouds: broken clouds at 3000 feet AGL
Weather: no significant weather forecast for this period